Airfield :
LOGIN :

Register | Disclaimer

   EN    FR    IT 

 










Legend :    VFR   Marginal VFR   IFR   Intensive IFR   Very Intensive IFR
Visi :
Ceiling :
>= 8 km
>= 3000ft
5 to 8 km
1000 to 3000 ft
1500m to 5 km
500 to 1000 ft
800 to 1500m
200 to 500 ft
< 800m
< 200 ft
Symbols :   Thunderstorms  Fog  Heavy snow  Heavy precipitations  Wind > 20 kt
SIGMETs :     Misc.  Thunderstorms  Icing  Turbulence  Mountain Waves  Volcanic Ashes






- Airport Elevation : 1300 ft
- IATA code : LIG


LFBL - Limoges

CURRENT METAR :
  • 082130Z AUTO 27007KT 230V290 8000 OVC003 03/02 Q1008 TEMPO 0800 FG VV///

EXPIRED METARs :
  • 082100Z AUTO 27006KT 230V300 9999 OVC005 03/02 Q1007 TEMPO 0800 FG VV///
  • 082030Z AUTO 27007KT 240V300 9999 OVC004 03/03 Q1007 TEMPO 0800 FG VV///
  • 082000Z AUTO 26005KT 230V290 7000 BKN005 OVC010 03/02 Q1006 BECMG 2000 BR
  • 081930Z AUTO 27006KT 240V300 9999 OVC008 03/02 Q1006 BECMG 2000 BR OVC002
  • 081900Z AUTO 27006KT 7000 OVC004 03/03 Q1006 TEMPO OVC006 BECMG 2000 BR

TAF AMD TAF LFBL
Valid from the 08 at 20:00 until the 09 at 18:00 UTC


082029Z 0820/0918 26006KT 9999 OVC003
BECMG 0820/0822 3000 BR OVC002
PROB40 0822/0910 0800 FG VV///
BECMG 0910/0912 8000 NSW BKN006
BECMG 0912/0914 18010KT BKN012
TEMPO 0914/0917 OVC016
ATIS : +33 5 55 48 40 37



MET'MAP, your aeronautical weather chart ! - Copyright ORBIFLY December 2007 - Disclaimer

ORBIFLY MET'MAP TEAM :

Programming & Development : Alexandra Zaïnal
Concept & original design : Baudouin d'Aumeries
Assistance for programming : Marc-Olivier Méhu
Technical & hardware support : Manuel Goepfert

Contact : metmap@orbifly.com




SOURCES & CREDITS :

   NOAA